sensor_id;sensor_type;location;lat;lon;timestamp;P1;durP1;ratioP1;P2;durP2;ratioP2
77040;SDS011;65974;42.664;23.264;2024-03-02T00:00:14;26.40;;;13.85;;
77040;SDS011;65974;42.664;23.264;2024-03-02T00:02:40;27.08;;;14.00;;
77040;SDS011;65974;42.664;23.264;2024-03-02T00:05:27;22.58;;;11.95;;
77040;SDS011;65974;42.664;23.264;2024-03-02T00:07:54;21.88;;;12.00;;
77040;SDS011;65974;42.664;23.264;2024-03-02T00:10:21;12.98;;;5.15;;
77040;SDS011;65974;42.664;23.264;2024-03-02T00:12:58;22.20;;;11.65;;
77040;SDS011;65974;42.664;23.264;2024-03-02T00:18:08;23.10;;;10.75;;
77040;SDS011;65974;42.664;23.264;2024-03-02T00:20:36;25.70;;;10.68;;
77040;SDS011;65974;42.664;23.264;2024-03-02T00:23:05;23.08;;;11.73;;
77040;SDS011;65974;42.664;23.264;2024-03-02T00:25:39;12.63;;;8.98;;
77040;SDS011;65974;42.664;23.264;2024-03-02T00:28:14;22.13;;;11.43;;
77040;SDS011;65974;42.664;23.264;2024-03-02T00:30:56;18.58;;;11.35;;
77040;SDS011;65974;42.664;23.264;2024-03-02T00:33:23;23.77;;;11.90;;
77040;SDS011;65974;42.664;23.264;2024-03-02T00:35:50;9.38;;;6.18;;
77040;SDS011;65974;42.664;23.264;2024-03-02T00:38:16;25.25;;;11.80;;
77040;SDS011;65974;42.664;23.264;2024-03-02T00:40:42;17.17;;;7.72;;
77040;SDS011;65974;42.664;23.264;2024-03-02T00:46:15;24.10;;;12.32;;
77040;SDS011;65974;42.664;23.264;2024-03-02T00:48:45;28.13;;;13.60;;
77040;SDS011;65974;42.664;23.264;2024-03-02T00:51:15;26.88;;;13.88;;
77040;SDS011;65974;42.664;23.264;2024-03-02T00:53:41;22.98;;;11.45;;
77040;SDS011;65974;42.664;23.264;2024-03-02T00:56:08;24.63;;;12.98;;
77040;SDS011;65974;42.664;23.264;2024-03-02T00:58:37;28.13;;;14.63;;
77040;SDS011;65974;42.664;23.264;2024-03-02T01:01:03;24.00;;;12.48;;
77040;SDS011;65974;42.664;23.264;2024-03-02T01:03:29;33.78;;;15.55;;
77040;SDS011;65974;42.664;23.264;2024-03-02T01:05:56;31.15;;;15.32;;
77040;SDS011;65974;42.664;23.264;2024-03-02T01:08:22;34.83;;;16.00;;
77040;SDS011;65974;42.664;23.264;2024-03-02T01:10:47;30.55;;;14.38;;
77040;SDS011;65974;42.664;23.264;2024-03-02T01:13:13;24.60;;;12.73;;
77040;SDS011;65974;42.664;23.264;2024-03-02T01:15:38;25.77;;;14.77;;
77040;SDS011;65974;42.664;23.264;2024-03-02T01:18:04;28.10;;;14.20;;
77040;SDS011;65974;42.664;23.264;2024-03-02T01:20:29;28.02;;;14.45;;
77040;SDS011;65974;42.664;23.264;2024-03-02T01:22:55;26.77;;;13.23;;
77040;SDS011;65974;42.664;23.264;2024-03-02T01:25:21;25.90;;;14.82;;
77040;SDS011;65974;42.664;23.264;2024-03-02T01:27:46;24.73;;;12.50;;
77040;SDS011;65974;42.664;23.264;2024-03-02T01:30:12;31.35;;;14.93;;
77040;SDS011;65974;42.664;23.264;2024-03-02T01:32:38;26.85;;;13.93;;
77040;SDS011;65974;42.664;23.264;2024-03-02T01:35:04;28.63;;;13.73;;
77040;SDS011;65974;42.664;23.264;2024-03-02T01:37:31;30.50;;;13.70;;
77040;SDS011;65974;42.664;23.264;2024-03-02T01:39:57;30.50;;;16.15;;
77040;SDS011;65974;42.664;23.264;2024-03-02T01:42:24;24.45;;;12.05;;
77040;SDS011;65974;42.664;23.264;2024-03-02T01:44:49;25.00;;;13.27;;
77040;SDS011;65974;42.664;23.264;2024-03-02T01:47:15;23.58;;;11.90;;
77040;SDS011;65974;42.664;23.264;2024-03-02T01:49:40;20.73;;;10.55;;
77040;SDS011;65974;42.664;23.264;2024-03-02T01:52:06;26.70;;;14.13;;
77040;SDS011;65974;42.664;23.264;2024-03-02T01:54:32;29.98;;;13.70;;
77040;SDS011;65974;42.664;23.264;2024-03-02T01:56:58;25.27;;;13.10;;
77040;SDS011;65974;42.664;23.264;2024-03-02T01:59:24;24.15;;;12.68;;
77040;SDS011;65974;42.664;23.264;2024-03-02T02:01:50;31.73;;;14.52;;
77040;SDS011;65974;42.664;23.264;2024-03-02T02:04:15;31.00;;;15.02;;
77040;SDS011;65974;42.664;23.264;2024-03-02T02:06:41;30.83;;;13.35;;
77040;SDS011;65974;42.664;23.264;2024-03-02T02:09:08;26.05;;;13.18;;
77040;SDS011;65974;42.664;23.264;2024-03-02T02:11:35;30.00;;;15.35;;
77040;SDS011;65974;42.664;23.264;2024-03-02T02:14:01;20.25;;;12.95;;
77040;SDS011;65974;42.664;23.264;2024-03-02T02:16:26;25.13;;;14.90;;
77040;SDS011;65974;42.664;23.264;2024-03-02T02:18:52;26.52;;;13.52;;
77040;SDS011;65974;42.664;23.264;2024-03-02T02:21:17;30.20;;;14.20;;
77040;SDS011;65974;42.664;23.264;2024-03-02T02:23:47;28.77;;;13.80;;
77040;SDS011;65974;42.664;23.264;2024-03-02T02:26:14;27.55;;;14.40;;
77040;SDS011;65974;42.664;23.264;2024-03-02T02:28:40;30.52;;;14.82;;
77040;SDS011;65974;42.664;23.264;2024-03-02T02:31:12;30.05;;;14.10;;
77040;SDS011;65974;42.664;23.264;2024-03-02T02:33:41;29.50;;;13.63;;
77040;SDS011;65974;42.664;23.264;2024-03-02T02:36:07;28.90;;;14.60;;
77040;SDS011;65974;42.664;23.264;2024-03-02T02:38:36;27.20;;;13.63;;
77040;SDS011;65974;42.664;23.264;2024-03-02T02:41:05;29.73;;;13.55;;
77040;SDS011;65974;42.664;23.264;2024-03-02T02:43:32;28.40;;;14.40;;
77040;SDS011;65974;42.664;23.264;2024-03-02T02:45:58;24.08;;;12.75;;
77040;SDS011;65974;42.664;23.264;2024-03-02T02:48:26;30.83;;;15.93;;
77040;SDS011;65974;42.664;23.264;2024-03-02T02:50:53;28.48;;;14.48;;
77040;SDS011;65974;42.664;23.264;2024-03-02T02:53:18;26.70;;;12.15;;
77040;SDS011;65974;42.664;23.264;2024-03-02T02:55:44;27.05;;;13.65;;
77040;SDS011;65974;42.664;23.264;2024-03-02T02:58:11;23.35;;;13.77;;
77040;SDS011;65974;42.664;23.264;2024-03-02T03:00:36;36.10;;;17.35;;
77040;SDS011;65974;42.664;23.264;2024-03-02T03:03:02;38.17;;;17.25;;
77040;SDS011;65974;42.664;23.264;2024-03-02T03:05:28;29.25;;;14.57;;
77040;SDS011;65974;42.664;23.264;2024-03-02T03:07:53;32.22;;;15.27;;
77040;SDS011;65974;42.664;23.264;2024-03-02T03:10:20;30.52;;;14.60;;
77040;SDS011;65974;42.664;23.264;2024-03-02T03:12:48;33.55;;;15.63;;
77040;SDS011;65974;42.664;23.264;2024-03-02T03:15:14;27.13;;;13.93;;
77040;SDS011;65974;42.664;23.264;2024-03-02T03:17:41;34.03;;;15.15;;
77040;SDS011;65974;42.664;23.264;2024-03-02T03:20:07;34.60;;;17.65;;
77040;SDS011;65974;42.664;23.264;2024-03-02T03:22:36;33.03;;;16.90;;
77040;SDS011;65974;42.664;23.264;2024-03-02T03:25:04;37.95;;;17.88;;
77040;SDS011;65974;42.664;23.264;2024-03-02T03:27:30;31.38;;;15.93;;
77040;SDS011;65974;42.664;23.264;2024-03-02T03:29:56;33.38;;;17.85;;
77040;SDS011;65974;42.664;23.264;2024-03-02T03:32:21;32.33;;;17.50;;
77040;SDS011;65974;42.664;23.264;2024-03-02T03:34:47;38.58;;;17.42;;
77040;SDS011;65974;42.664;23.264;2024-03-02T03:37:13;31.33;;;16.15;;
77040;SDS011;65974;42.664;23.264;2024-03-02T03:39:39;34.13;;;17.70;;
77040;SDS011;65974;42.664;23.264;2024-03-02T03:42:07;32.75;;;15.57;;
77040;SDS011;65974;42.664;23.264;2024-03-02T03:44:33;39.03;;;17.13;;
77040;SDS011;65974;42.664;23.264;2024-03-02T03:46:59;33.88;;;15.07;;
77040;SDS011;65974;42.664;23.264;2024-03-02T03:49:26;38.95;;;17.67;;
77040;SDS011;65974;42.664;23.264;2024-03-02T03:51:51;35.17;;;16.98;;
77040;SDS011;65974;42.664;23.264;2024-03-02T03:54:17;35.97;;;17.15;;
77040;SDS011;65974;42.664;23.264;2024-03-02T03:56:43;38.97;;;18.05;;
77040;SDS011;65974;42.664;23.264;2024-03-02T03:59:09;37.70;;;17.23;;
77040;SDS011;65974;42.664;23.264;2024-03-02T04:01:34;40.53;;;17.77;;
77040;SDS011;65974;42.664;23.264;2024-03-02T04:04:00;41.42;;;17.35;;
77040;SDS011;65974;42.664;23.264;2024-03-02T04:06:27;34.40;;;17.75;;
77040;SDS011;65974;42.664;23.264;2024-03-02T04:08:52;40.15;;;19.55;;
77040;SDS011;65974;42.664;23.264;2024-03-02T04:11:18;39.08;;;17.98;;
77040;SDS011;65974;42.664;23.264;2024-03-02T04:13:43;40.05;;;18.35;;
77040;SDS011;65974;42.664;23.264;2024-03-02T04:16:09;35.97;;;16.52;;
77040;SDS011;65974;42.664;23.264;2024-03-02T04:18:34;37.03;;;18.80;;
77040;SDS011;65974;42.664;23.264;2024-03-02T04:21:01;36.60;;;17.17;;
77040;SDS011;65974;42.664;23.264;2024-03-02T04:23:27;36.10;;;17.88;;
77040;SDS011;65974;42.664;23.264;2024-03-02T04:25:52;40.42;;;19.60;;
77040;SDS011;65974;42.664;23.264;2024-03-02T04:28:18;42.28;;;18.80;;
77040;SDS011;65974;42.664;23.264;2024-03-02T04:30:43;39.45;;;18.83;;
77040;SDS011;65974;42.664;23.264;2024-03-02T04:33:09;38.15;;;17.10;;
77040;SDS011;65974;42.664;23.264;2024-03-02T04:35:38;38.22;;;18.48;;
77040;SDS011;65974;42.664;23.264;2024-03-02T04:40:29;31.00;;;15.15;;
77040;SDS011;65974;42.664;23.264;2024-03-02T04:42:54;36.88;;;17.67;;
77040;SDS011;65974;42.664;23.264;2024-03-02T04:45:20;34.75;;;17.42;;
77040;SDS011;65974;42.664;23.264;2024-03-02T04:47:45;39.08;;;19.83;;
77040;SDS011;65974;42.664;23.264;2024-03-02T04:50:10;37.85;;;19.63;;
77040;SDS011;65974;42.664;23.264;2024-03-02T04:52:36;37.88;;;18.65;;
77040;SDS011;65974;42.664;23.264;2024-03-02T04:55:02;47.33;;;20.67;;
77040;SDS011;65974;42.664;23.264;2024-03-02T04:57:46;34.50;;;17.98;;
77040;SDS011;65974;42.664;23.264;2024-03-02T05:02:44;34.30;;;16.63;;
77040;SDS011;65974;42.664;23.264;2024-03-02T05:05:09;42.25;;;17.80;;
77040;SDS011;65974;42.664;23.264;2024-03-02T05:07:35;38.33;;;19.13;;
77040;SDS011;65974;42.664;23.264;2024-03-02T05:10:02;41.83;;;20.13;;
77040;SDS011;65974;42.664;23.264;2024-03-02T05:12:28;39.65;;;17.92;;
77040;SDS011;65974;42.664;23.264;2024-03-02T05:15:13;36.55;;;16.67;;
77040;SDS011;65974;42.664;23.264;2024-03-02T05:17:40;40.13;;;19.73;;
77040;SDS011;65974;42.664;23.264;2024-03-02T05:20:08;37.85;;;19.05;;
77040;SDS011;65974;42.664;23.264;2024-03-02T05:22:34;45.08;;;20.50;;
77040;SDS011;65974;42.664;23.264;2024-03-02T05:25:00;37.95;;;17.88;;
77040;SDS011;65974;42.664;23.264;2024-03-02T05:27:27;44.85;;;21.00;;
77040;SDS011;65974;42.664;23.264;2024-03-02T05:29:52;38.22;;;19.52;;
77040;SDS011;65974;42.664;23.264;2024-03-02T05:32:18;42.53;;;16.88;;
77040;SDS011;65974;42.664;23.264;2024-03-02T05:34:44;45.80;;;20.17;;
77040;SDS011;65974;42.664;23.264;2024-03-02T05:37:09;45.70;;;21.00;;
77040;SDS011;65974;42.664;23.264;2024-03-02T05:39:34;43.25;;;18.98;;
77040;SDS011;65974;42.664;23.264;2024-03-02T05:42:01;40.55;;;18.27;;
77040;SDS011;65974;42.664;23.264;2024-03-02T05:44:28;38.50;;;21.23;;
77040;SDS011;65974;42.664;23.264;2024-03-02T05:46:53;41.78;;;18.65;;
77040;SDS011;65974;42.664;23.264;2024-03-02T05:49:19;36.97;;;18.73;;
77040;SDS011;65974;42.664;23.264;2024-03-02T05:51:44;30.08;;;16.30;;
77040;SDS011;65974;42.664;23.264;2024-03-02T05:54:10;37.22;;;20.30;;
77040;SDS011;65974;42.664;23.264;2024-03-02T05:56:35;39.05;;;19.00;;
77040;SDS011;65974;42.664;23.264;2024-03-02T05:59:02;37.63;;;17.30;;
77040;SDS011;65974;42.664;23.264;2024-03-02T06:01:45;38.95;;;20.00;;
77040;SDS011;65974;42.664;23.264;2024-03-02T06:04:16;45.83;;;17.90;;
77040;SDS011;65974;42.664;23.264;2024-03-02T06:06:42;45.85;;;21.65;;
77040;SDS011;65974;42.664;23.264;2024-03-02T06:09:09;33.10;;;17.30;;
77040;SDS011;65974;42.664;23.264;2024-03-02T06:11:38;46.80;;;20.67;;
77040;SDS011;65974;42.664;23.264;2024-03-02T06:14:04;42.72;;;20.88;;
77040;SDS011;65974;42.664;23.264;2024-03-02T06:16:31;38.30;;;19.58;;
77040;SDS011;65974;42.664;23.264;2024-03-02T06:18:57;39.75;;;17.50;;
77040;SDS011;65974;42.664;23.264;2024-03-02T06:21:26;46.95;;;19.17;;
77040;SDS011;65974;42.664;23.264;2024-03-02T06:23:52;39.28;;;17.30;;
77040;SDS011;65974;42.664;23.264;2024-03-02T06:26:18;39.80;;;19.58;;
77040;SDS011;65974;42.664;23.264;2024-03-02T06:28:44;34.65;;;16.20;;
77040;SDS011;65974;42.664;23.264;2024-03-02T06:31:12;43.72;;;19.88;;
77040;SDS011;65974;42.664;23.264;2024-03-02T06:33:37;46.83;;;21.58;;
77040;SDS011;65974;42.664;23.264;2024-03-02T06:36:05;46.08;;;20.23;;
77040;SDS011;65974;42.664;23.264;2024-03-02T06:38:34;54.17;;;21.35;;
77040;SDS011;65974;42.664;23.264;2024-03-02T06:40:59;35.60;;;18.45;;
77040;SDS011;65974;42.664;23.264;2024-03-02T06:43:25;49.88;;;22.45;;
77040;SDS011;65974;42.664;23.264;2024-03-02T06:45:51;44.42;;;22.23;;
77040;SDS011;65974;42.664;23.264;2024-03-02T06:48:17;46.70;;;21.88;;
77040;SDS011;65974;42.664;23.264;2024-03-02T06:50:46;38.65;;;19.17;;
77040;SDS011;65974;42.664;23.264;2024-03-02T06:53:15;45.15;;;20.80;;
77040;SDS011;65974;42.664;23.264;2024-03-02T06:55:45;47.97;;;21.77;;
77040;SDS011;65974;42.664;23.264;2024-03-02T06:58:14;51.08;;;23.77;;
77040;SDS011;65974;42.664;23.264;2024-03-02T07:00:41;40.83;;;21.27;;
77040;SDS011;65974;42.664;23.264;2024-03-02T07:03:07;52.17;;;25.70;;
77040;SDS011;65974;42.664;23.264;2024-03-02T07:05:32;45.58;;;22.13;;
77040;SDS011;65974;42.664;23.264;2024-03-02T07:07:59;38.35;;;18.63;;
77040;SDS011;65974;42.664;23.264;2024-03-02T07:10:26;38.10;;;17.75;;
77040;SDS011;65974;42.664;23.264;2024-03-02T07:12:52;28.98;;;14.38;;
77040;SDS011;65974;42.664;23.264;2024-03-02T07:15:17;34.40;;;17.02;;
77040;SDS011;65974;42.664;23.264;2024-03-02T07:17:52;27.60;;;14.63;;
77040;SDS011;65974;42.664;23.264;2024-03-02T07:20:17;32.42;;;16.20;;
77040;SDS011;65974;42.664;23.264;2024-03-02T07:22:43;32.35;;;15.57;;
77040;SDS011;65974;42.664;23.264;2024-03-02T07:25:08;33.35;;;14.50;;
77040;SDS011;65974;42.664;23.264;2024-03-02T07:27:34;31.70;;;15.35;;
77040;SDS011;65974;42.664;23.264;2024-03-02T07:30:02;34.42;;;15.68;;
77040;SDS011;65974;42.664;23.264;2024-03-02T07:32:30;34.83;;;14.40;;
77040;SDS011;65974;42.664;23.264;2024-03-02T07:34:56;31.13;;;14.25;;
77040;SDS011;65974;42.664;23.264;2024-03-02T07:37:25;30.08;;;14.70;;
77040;SDS011;65974;42.664;23.264;2024-03-02T07:39:51;37.63;;;18.17;;
77040;SDS011;65974;42.664;23.264;2024-03-02T07:42:17;28.60;;;13.85;;
77040;SDS011;65974;42.664;23.264;2024-03-02T07:44:44;27.52;;;14.25;;
77040;SDS011;65974;42.664;23.264;2024-03-02T07:47:10;32.92;;;16.30;;
77040;SDS011;65974;42.664;23.264;2024-03-02T07:49:36;36.47;;;16.15;;
77040;SDS011;65974;42.664;23.264;2024-03-02T07:52:02;34.25;;;16.77;;
77040;SDS011;65974;42.664;23.264;2024-03-02T07:54:28;31.38;;;15.68;;
77040;SDS011;65974;42.664;23.264;2024-03-02T07:56:55;30.80;;;14.90;;
77040;SDS011;65974;42.664;23.264;2024-03-02T07:59:20;28.80;;;14.20;;
77040;SDS011;65974;42.664;23.264;2024-03-02T08:01:48;30.02;;;14.50;;
77040;SDS011;65974;42.664;23.264;2024-03-02T08:04:14;35.22;;;17.70;;
77040;SDS011;65974;42.664;23.264;2024-03-02T08:06:41;30.23;;;15.30;;
77040;SDS011;65974;42.664;23.264;2024-03-02T08:09:06;29.48;;;14.00;;
77040;SDS011;65974;42.664;23.264;2024-03-02T08:11:35;31.25;;;15.32;;
77040;SDS011;65974;42.664;23.264;2024-03-02T08:14:01;31.13;;;15.52;;
77040;SDS011;65974;42.664;23.264;2024-03-02T08:16:28;28.80;;;13.95;;
77040;SDS011;65974;42.664;23.264;2024-03-02T08:18:54;35.70;;;16.58;;
77040;SDS011;65974;42.664;23.264;2024-03-02T08:21:22;32.47;;;16.13;;
77040;SDS011;65974;42.664;23.264;2024-03-02T08:23:47;37.15;;;15.57;;
77040;SDS011;65974;42.664;23.264;2024-03-02T08:26:14;35.92;;;16.58;;
77040;SDS011;65974;42.664;23.264;2024-03-02T08:28:41;35.55;;;15.25;;
77040;SDS011;65974;42.664;23.264;2024-03-02T08:31:07;44.47;;;19.15;;
77040;SDS011;65974;42.664;23.264;2024-03-02T08:33:35;32.72;;;16.02;;
77040;SDS011;65974;42.664;23.264;2024-03-02T08:40:56;33.58;;;15.48;;
77040;SDS011;65974;42.664;23.264;2024-03-02T08:43:22;27.73;;;13.70;;
77040;SDS011;65974;42.664;23.264;2024-03-02T08:45:48;37.47;;;17.25;;
77040;SDS011;65974;42.664;23.264;2024-03-02T08:48:13;38.15;;;16.95;;
77040;SDS011;65974;42.664;23.264;2024-03-02T08:50:44;33.92;;;15.75;;
77040;SDS011;65974;42.664;23.264;2024-03-02T08:53:13;40.65;;;18.95;;
77040;SDS011;65974;42.664;23.264;2024-03-02T08:55:43;32.40;;;16.88;;
77040;SDS011;65974;42.664;23.264;2024-03-02T08:58:10;35.97;;;17.98;;
77040;SDS011;65974;42.664;23.264;2024-03-02T09:00:35;33.00;;;13.30;;
77040;SDS011;65974;42.664;23.264;2024-03-02T09:03:01;41.40;;;17.95;;
77040;SDS011;65974;42.664;23.264;2024-03-02T09:07:54;29.10;;;13.85;;
77040;SDS011;65974;42.664;23.264;2024-03-02T09:10:20;30.80;;;15.60;;
77040;SDS011;65974;42.664;23.264;2024-03-02T09:12:48;29.65;;;15.40;;
77040;SDS011;65974;42.664;23.264;2024-03-02T09:15:18;35.55;;;16.50;;
77040;SDS011;65974;42.664;23.264;2024-03-02T09:17:46;28.15;;;14.57;;
77040;SDS011;65974;42.664;23.264;2024-03-02T09:20:11;31.23;;;15.90;;
77040;SDS011;65974;42.664;23.264;2024-03-02T09:22:37;30.15;;;15.15;;
77040;SDS011;65974;42.664;23.264;2024-03-02T09:25:06;30.98;;;16.60;;
77040;SDS011;65974;42.664;23.264;2024-03-02T09:27:37;34.22;;;15.38;;
77040;SDS011;65974;42.664;23.264;2024-03-02T09:30:04;27.92;;;15.07;;
77040;SDS011;65974;42.664;23.264;2024-03-02T09:32:31;29.63;;;13.82;;
77040;SDS011;65974;42.664;23.264;2024-03-02T09:34:56;30.58;;;14.82;;
77040;SDS011;65974;42.664;23.264;2024-03-02T09:37:23;35.55;;;13.52;;
77040;SDS011;65974;42.664;23.264;2024-03-02T09:39:49;24.45;;;12.52;;
77040;SDS011;65974;42.664;23.264;2024-03-02T09:42:14;24.42;;;14.40;;
77040;SDS011;65974;42.664;23.264;2024-03-02T09:44:42;32.40;;;13.77;;
77040;SDS011;65974;42.664;23.264;2024-03-02T09:47:07;31.15;;;13.68;;
77040;SDS011;65974;42.664;23.264;2024-03-02T09:49:34;24.63;;;12.40;;
77040;SDS011;65974;42.664;23.264;2024-03-02T09:52:00;23.85;;;12.70;;
77040;SDS011;65974;42.664;23.264;2024-03-02T09:54:26;28.08;;;15.57;;
77040;SDS011;65974;42.664;23.264;2024-03-02T09:56:52;27.25;;;15.25;;
77040;SDS011;65974;42.664;23.264;2024-03-02T09:59:18;29.20;;;13.20;;
77040;SDS011;65974;42.664;23.264;2024-03-02T10:01:57;30.45;;;16.70;;
77040;SDS011;65974;42.664;23.264;2024-03-02T10:04:28;31.50;;;15.40;;
77040;SDS011;65974;42.664;23.264;2024-03-02T10:09:44;27.83;;;14.32;;
77040;SDS011;65974;42.664;23.264;2024-03-02T10:12:12;27.42;;;13.18;;
77040;SDS011;65974;42.664;23.264;2024-03-02T10:14:39;29.30;;;13.93;;
77040;SDS011;65974;42.664;23.264;2024-03-02T10:17:06;27.67;;;13.18;;
77040;SDS011;65974;42.664;23.264;2024-03-02T10:19:33;33.17;;;15.57;;
77040;SDS011;65974;42.664;23.264;2024-03-02T10:22:00;32.15;;;15.98;;
77040;SDS011;65974;42.664;23.264;2024-03-02T10:24:28;28.02;;;14.02;;
77040;SDS011;65974;42.664;23.264;2024-03-02T10:27:00;28.05;;;14.98;;
77040;SDS011;65974;42.664;23.264;2024-03-02T10:29:28;29.85;;;15.43;;
77040;SDS011;65974;42.664;23.264;2024-03-02T10:31:57;31.38;;;15.15;;
77040;SDS011;65974;42.664;23.264;2024-03-02T10:34:24;31.75;;;15.23;;
77040;SDS011;65974;42.664;23.264;2024-03-02T10:36:51;34.13;;;16.33;;
77040;SDS011;65974;42.664;23.264;2024-03-02T10:39:16;33.92;;;16.45;;
77040;SDS011;65974;42.664;23.264;2024-03-02T10:41:43;33.97;;;16.27;;
77040;SDS011;65974;42.664;23.264;2024-03-02T10:44:11;34.60;;;15.65;;
77040;SDS011;65974;42.664;23.264;2024-03-02T10:46:37;41.15;;;19.13;;
77040;SDS011;65974;42.664;23.264;2024-03-02T10:49:03;47.08;;;20.80;;
77040;SDS011;65974;42.664;23.264;2024-03-02T10:51:31;45.60;;;25.27;;
77040;SDS011;65974;42.664;23.264;2024-03-02T10:54:01;40.72;;;17.75;;
77040;SDS011;65974;42.664;23.264;2024-03-02T10:56:29;47.03;;;25.42;;
77040;SDS011;65974;42.664;23.264;2024-03-02T11:01:53;52.22;;;23.42;;
77040;SDS011;65974;42.664;23.264;2024-03-02T11:04:25;57.75;;;25.75;;
77040;SDS011;65974;42.664;23.264;2024-03-02T11:06:54;42.33;;;21.30;;
77040;SDS011;65974;42.664;23.264;2024-03-02T11:09:27;47.53;;;24.23;;
77040;SDS011;65974;42.664;23.264;2024-03-02T11:12:18;48.50;;;24.02;;
77040;SDS011;65974;42.664;23.264;2024-03-02T11:14:49;45.85;;;20.05;;
77040;SDS011;65974;42.664;23.264;2024-03-02T11:17:17;46.17;;;23.20;;
77040;SDS011;65974;42.664;23.264;2024-03-02T11:19:43;52.25;;;25.15;;
77040;SDS011;65974;42.664;23.264;2024-03-02T11:22:10;41.75;;;21.58;;
77040;SDS011;65974;42.664;23.264;2024-03-02T11:24:37;41.65;;;21.65;;
77040;SDS011;65974;42.664;23.264;2024-03-02T11:27:03;44.70;;;22.42;;
77040;SDS011;65974;42.664;23.264;2024-03-02T11:32:22;43.33;;;19.27;;
77040;SDS011;65974;42.664;23.264;2024-03-02T11:34:51;44.55;;;19.80;;
77040;SDS011;65974;42.664;23.264;2024-03-02T11:37:17;38.75;;;19.17;;
77040;SDS011;65974;42.664;23.264;2024-03-02T11:39:46;43.50;;;19.70;;
77040;SDS011;65974;42.664;23.264;2024-03-02T11:42:15;40.35;;;18.77;;
77040;SDS011;65974;42.664;23.264;2024-03-02T11:44:45;35.38;;;17.17;;
77040;SDS011;65974;42.664;23.264;2024-03-02T11:47:12;38.67;;;19.77;;
77040;SDS011;65974;42.664;23.264;2024-03-02T11:49:43;31.23;;;15.98;;
77040;SDS011;65974;42.664;23.264;2024-03-02T11:52:19;40.47;;;18.90;;
77040;SDS011;65974;42.664;23.264;2024-03-02T11:54:47;38.10;;;19.67;;
77040;SDS011;65974;42.664;23.264;2024-03-02T11:57:19;37.60;;;17.30;;
77040;SDS011;65974;42.664;23.264;2024-03-02T11:59:51;41.33;;;19.98;;
77040;SDS011;65974;42.664;23.264;2024-03-02T12:02:20;41.65;;;19.20;;
77040;SDS011;65974;42.664;23.264;2024-03-02T12:04:46;38.25;;;18.65;;
77040;SDS011;65974;42.664;23.264;2024-03-02T12:07:19;32.10;;;17.27;;
77040;SDS011;65974;42.664;23.264;2024-03-02T12:09:48;36.30;;;17.58;;
77040;SDS011;65974;42.664;23.264;2024-03-02T12:15:00;32.60;;;16.75;;
77040;SDS011;65974;42.664;23.264;2024-03-02T12:17:26;31.02;;;16.77;;
77040;SDS011;65974;42.664;23.264;2024-03-02T12:19:53;34.47;;;18.92;;
77040;SDS011;65974;42.664;23.264;2024-03-02T12:22:18;33.70;;;17.45;;
77040;SDS011;65974;42.664;23.264;2024-03-02T12:24:44;41.60;;;18.20;;
77040;SDS011;65974;42.664;23.264;2024-03-02T12:27:13;35.88;;;19.40;;
77040;SDS011;65974;42.664;23.264;2024-03-02T12:29:41;43.17;;;23.92;;
77040;SDS011;65974;42.664;23.264;2024-03-02T12:32:07;36.40;;;19.83;;
77040;SDS011;65974;42.664;23.264;2024-03-02T12:34:33;36.45;;;19.42;;
77040;SDS011;65974;42.664;23.264;2024-03-02T12:36:58;32.15;;;18.88;;
77040;SDS011;65974;42.664;23.264;2024-03-02T12:39:24;39.97;;;18.45;;
77040;SDS011;65974;42.664;23.264;2024-03-02T12:41:50;34.80;;;18.08;;
77040;SDS011;65974;42.664;23.264;2024-03-02T12:44:17;37.70;;;17.50;;
77040;SDS011;65974;42.664;23.264;2024-03-02T12:46:43;42.53;;;20.50;;
77040;SDS011;65974;42.664;23.264;2024-03-02T12:49:13;35.20;;;16.48;;
77040;SDS011;65974;42.664;23.264;2024-03-02T12:51:43;39.42;;;16.83;;
77040;SDS011;65974;42.664;23.264;2024-03-02T12:54:12;36.47;;;17.50;;
77040;SDS011;65974;42.664;23.264;2024-03-02T12:56:37;37.95;;;17.67;;
77040;SDS011;65974;42.664;23.264;2024-03-02T12:59:03;32.85;;;18.10;;
77040;SDS011;65974;42.664;23.264;2024-03-02T13:01:31;38.33;;;19.60;;
77040;SDS011;65974;42.664;23.264;2024-03-02T13:03:57;41.47;;;20.83;;
77040;SDS011;65974;42.664;23.264;2024-03-02T13:06:24;46.33;;;22.05;;
77040;SDS011;65974;42.664;23.264;2024-03-02T13:08:53;38.58;;;18.38;;
77040;SDS011;65974;42.664;23.264;2024-03-02T13:11:20;45.15;;;22.48;;
77040;SDS011;65974;42.664;23.264;2024-03-02T13:13:47;41.95;;;21.13;;
77040;SDS011;65974;42.664;23.264;2024-03-02T13:16:13;39.40;;;19.90;;
77040;SDS011;65974;42.664;23.264;2024-03-02T13:18:39;44.58;;;20.58;;
77040;SDS011;65974;42.664;23.264;2024-03-02T13:21:05;36.15;;;18.80;;
77040;SDS011;65974;42.664;23.264;2024-03-02T13:23:31;33.55;;;17.17;;
77040;SDS011;65974;42.664;23.264;2024-03-02T13:25:57;37.45;;;18.95;;
77040;SDS011;65974;42.664;23.264;2024-03-02T13:28:25;36.08;;;17.85;;
77040;SDS011;65974;42.664;23.264;2024-03-02T13:30:54;38.17;;;18.02;;
77040;SDS011;65974;42.664;23.264;2024-03-02T13:33:19;40.03;;;19.58;;
77040;SDS011;65974;42.664;23.264;2024-03-02T13:35:48;37.60;;;21.08;;
77040;SDS011;65974;42.664;23.264;2024-03-02T13:38:19;36.17;;;18.15;;
77040;SDS011;65974;42.664;23.264;2024-03-02T13:40:46;41.90;;;21.20;;
77040;SDS011;65974;42.664;23.264;2024-03-02T13:43:16;41.38;;;19.40;;
77040;SDS011;65974;42.664;23.264;2024-03-02T13:45:42;39.92;;;19.77;;
77040;SDS011;65974;42.664;23.264;2024-03-02T13:48:07;44.10;;;22.35;;
77040;SDS011;65974;42.664;23.264;2024-03-02T13:50:33;42.88;;;19.90;;
77040;SDS011;65974;42.664;23.264;2024-03-02T13:52:58;35.45;;;19.00;;
77040;SDS011;65974;42.664;23.264;2024-03-02T13:55:25;36.72;;;19.73;;
77040;SDS011;65974;42.664;23.264;2024-03-02T13:57:51;42.42;;;20.67;;
77040;SDS011;65974;42.664;23.264;2024-03-02T14:00:17;40.10;;;20.85;;
77040;SDS011;65974;42.664;23.264;2024-03-02T14:02:45;37.97;;;19.77;;
77040;SDS011;65974;42.664;23.264;2024-03-02T14:05:11;38.45;;;19.65;;
77040;SDS011;65974;42.664;23.264;2024-03-02T14:07:40;34.45;;;18.70;;
77040;SDS011;65974;42.664;23.264;2024-03-02T14:10:06;40.22;;;19.50;;
77040;SDS011;65974;42.664;23.264;2024-03-02T14:12:33;35.80;;;19.30;;
77040;SDS011;65974;42.664;23.264;2024-03-02T14:14:59;41.03;;;19.75;;
77040;SDS011;65974;42.664;23.264;2024-03-02T14:17:27;39.00;;;19.67;;
77040;SDS011;65974;42.664;23.264;2024-03-02T14:19:53;37.10;;;20.33;;
77040;SDS011;65974;42.664;23.264;2024-03-02T14:22:19;36.75;;;21.08;;
77040;SDS011;65974;42.664;23.264;2024-03-02T14:24:45;38.38;;;20.70;;
77040;SDS011;65974;42.664;23.264;2024-03-02T14:27:11;46.17;;;24.10;;
77040;SDS011;65974;42.664;23.264;2024-03-02T14:29:39;41.75;;;23.48;;
77040;SDS011;65974;42.664;23.264;2024-03-02T14:32:05;41.58;;;19.60;;
77040;SDS011;65974;42.664;23.264;2024-03-02T14:34:32;39.88;;;20.05;;
77040;SDS011;65974;42.664;23.264;2024-03-02T14:36:58;40.40;;;20.77;;